sensor_id;sensor_type;location;lat;lon;timestamp;P1;durP1;ratioP1;P2;durP2;ratioP2
8574;SDS011;4325;42.520;27.448;2023-04-06T00:00:24;10.93;;;9.83;;
8574;SDS011;4325;42.520;27.448;2023-04-06T00:02:51;10.60;;;9.50;;
8574;SDS011;4325;42.520;27.448;2023-04-06T00:05:18;10.83;;;9.83;;
8574;SDS011;4325;42.520;27.448;2023-04-06T00:07:46;10.93;;;9.83;;
8574;SDS011;4325;42.520;27.448;2023-04-06T00:10:13;10.63;;;9.53;;
8574;SDS011;4325;42.520;27.448;2023-04-06T00:12:41;10.40;;;9.40;;
8574;SDS011;4325;42.520;27.448;2023-04-06T00:15:09;11.17;;;10.07;;
8574;SDS011;4325;42.520;27.448;2023-04-06T00:17:37;11.90;;;9.77;;
8574;SDS011;4325;42.520;27.448;2023-04-06T00:20:04;15.17;;;9.97;;
8574;SDS011;4325;42.520;27.448;2023-04-06T00:22:31;10.97;;;9.87;;
8574;SDS011;4325;42.520;27.448;2023-04-06T00:24:59;10.43;;;9.43;;
8574;SDS011;4325;42.520;27.448;2023-04-06T00:27:25;10.63;;;9.57;;
8574;SDS011;4325;42.520;27.448;2023-04-06T00:29:52;10.37;;;9.27;;
8574;SDS011;4325;42.520;27.448;2023-04-06T00:32:21;11.73;;;9.90;;
8574;SDS011;4325;42.520;27.448;2023-04-06T00:34:47;10.00;;;9.00;;
8574;SDS011;4325;42.520;27.448;2023-04-06T00:37:14;9.70;;;8.70;;
8574;SDS011;4325;42.520;27.448;2023-04-06T00:39:42;10.13;;;8.93;;
8574;SDS011;4325;42.520;27.448;2023-04-06T00:42:10;10.13;;;9.13;;
8574;SDS011;4325;42.520;27.448;2023-04-06T00:44:38;10.03;;;9.03;;
8574;SDS011;4325;42.520;27.448;2023-04-06T00:47:05;12.27;;;9.37;;
8574;SDS011;4325;42.520;27.448;2023-04-06T00:49:34;12.07;;;10.73;;
8574;SDS011;4325;42.520;27.448;2023-04-06T00:52:01;15.17;;;12.20;;
8574;SDS011;4325;42.520;27.448;2023-04-06T00:54:28;14.47;;;9.60;;
8574;SDS011;4325;42.520;27.448;2023-04-06T00:56:55;13.27;;;10.37;;
8574;SDS011;4325;42.520;27.448;2023-04-06T00:59:23;10.97;;;9.07;;
8574;SDS011;4325;42.520;27.448;2023-04-06T01:01:50;12.27;;;9.90;;
8574;SDS011;4325;42.520;27.448;2023-04-06T01:04:17;9.87;;;8.87;;
8574;SDS011;4325;42.520;27.448;2023-04-06T01:06:45;10.47;;;9.40;;
8574;SDS011;4325;42.520;27.448;2023-04-06T01:09:12;10.77;;;9.67;;
8574;SDS011;4325;42.520;27.448;2023-04-06T01:11:39;10.77;;;9.67;;
8574;SDS011;4325;42.520;27.448;2023-04-06T01:14:06;11.53;;;10.33;;
8574;SDS011;4325;42.520;27.448;2023-04-06T01:16:33;13.33;;;10.77;;
8574;SDS011;4325;42.520;27.448;2023-04-06T01:19:01;10.43;;;9.33;;
8574;SDS011;4325;42.520;27.448;2023-04-06T01:21:32;9.87;;;8.87;;
8574;SDS011;4325;42.520;27.448;2023-04-06T01:24:01;9.97;;;8.97;;
8574;SDS011;4325;42.520;27.448;2023-04-06T01:26:28;9.43;;;8.53;;
8574;SDS011;4325;42.520;27.448;2023-04-06T01:28:55;10.07;;;9.07;;
8574;SDS011;4325;42.520;27.448;2023-04-06T01:31:22;10.50;;;9.10;;
8574;SDS011;4325;42.520;27.448;2023-04-06T01:33:50;9.90;;;8.97;;
8574;SDS011;4325;42.520;27.448;2023-04-06T01:36:17;10.10;;;9.13;;
8574;SDS011;4325;42.520;27.448;2023-04-06T01:38:44;10.27;;;9.20;;
8574;SDS011;4325;42.520;27.448;2023-04-06T01:41:13;10.53;;;9.43;;
8574;SDS011;4325;42.520;27.448;2023-04-06T01:43:40;10.50;;;9.40;;
8574;SDS011;4325;42.520;27.448;2023-04-06T01:46:07;10.43;;;9.43;;
8574;SDS011;4325;42.520;27.448;2023-04-06T01:48:34;10.10;;;9.10;;
8574;SDS011;4325;42.520;27.448;2023-04-06T01:51:01;11.10;;;9.90;;
8574;SDS011;4325;42.520;27.448;2023-04-06T01:53:28;10.73;;;9.63;;
8574;SDS011;4325;42.520;27.448;2023-04-06T01:55:55;11.10;;;10.00;;
8574;SDS011;4325;42.520;27.448;2023-04-06T01:58:23;9.97;;;9.00;;
8574;SDS011;4325;42.520;27.448;2023-04-06T02:00:51;10.60;;;9.50;;
8574;SDS011;4325;42.520;27.448;2023-04-06T02:03:18;10.87;;;9.67;;
8574;SDS011;4325;42.520;27.448;2023-04-06T02:05:45;10.70;;;9.60;;
8574;SDS011;4325;42.520;27.448;2023-04-06T02:08:12;10.93;;;9.70;;
8574;SDS011;4325;42.520;27.448;2023-04-06T02:10:38;10.77;;;9.73;;
8574;SDS011;4325;42.520;27.448;2023-04-06T02:13:05;11.47;;;10.20;;
8574;SDS011;4325;42.520;27.448;2023-04-06T02:15:34;10.37;;;9.37;;
8574;SDS011;4325;42.520;27.448;2023-04-06T02:18:00;11.57;;;10.03;;
8574;SDS011;4325;42.520;27.448;2023-04-06T02:20:27;11.03;;;9.93;;
8574;SDS011;4325;42.520;27.448;2023-04-06T02:22:56;11.43;;;10.30;;
8574;SDS011;4325;42.520;27.448;2023-04-06T02:25:23;11.40;;;10.17;;
8574;SDS011;4325;42.520;27.448;2023-04-06T02:27:50;11.33;;;10.00;;
8574;SDS011;4325;42.520;27.448;2023-04-06T02:30:17;11.43;;;10.13;;
8574;SDS011;4325;42.520;27.448;2023-04-06T02:32:45;12.03;;;10.50;;
8574;SDS011;4325;42.520;27.448;2023-04-06T02:35:12;13.60;;;10.90;;
8574;SDS011;4325;42.520;27.448;2023-04-06T02:37:39;11.37;;;10.17;;
8574;SDS011;4325;42.520;27.448;2023-04-06T02:40:07;12.77;;;10.33;;
8574;SDS011;4325;42.520;27.448;2023-04-06T02:42:35;12.23;;;10.47;;
8574;SDS011;4325;42.520;27.448;2023-04-06T02:45:02;13.13;;;11.13;;
8574;SDS011;4325;42.520;27.448;2023-04-06T02:47:29;13.93;;;11.57;;
8574;SDS011;4325;42.520;27.448;2023-04-06T02:49:57;12.30;;;9.87;;
8574;SDS011;4325;42.520;27.448;2023-04-06T02:52:24;11.53;;;10.17;;
8574;SDS011;4325;42.520;27.448;2023-04-06T02:54:51;11.93;;;10.43;;
8574;SDS011;4325;42.520;27.448;2023-04-06T02:57:18;10.93;;;9.23;;
8574;SDS011;4325;42.520;27.448;2023-04-06T02:59:44;10.57;;;9.23;;
8574;SDS011;4325;42.520;27.448;2023-04-06T03:02:11;10.67;;;8.93;;
8574;SDS011;4325;42.520;27.448;2023-04-06T03:04:38;9.80;;;8.83;;
8574;SDS011;4325;42.520;27.448;2023-04-06T03:07:06;9.63;;;8.63;;
8574;SDS011;4325;42.520;27.448;2023-04-06T03:09:33;9.17;;;8.13;;
8574;SDS011;4325;42.520;27.448;2023-04-06T03:12:03;9.73;;;8.53;;
8574;SDS011;4325;42.520;27.448;2023-04-06T03:14:30;9.63;;;8.63;;
8574;SDS011;4325;42.520;27.448;2023-04-06T03:16:57;11.13;;;9.70;;
8574;SDS011;4325;42.520;27.448;2023-04-06T03:19:24;10.27;;;9.17;;
8574;SDS011;4325;42.520;27.448;2023-04-06T03:21:50;9.90;;;8.90;;
8574;SDS011;4325;42.520;27.448;2023-04-06T03:24:19;10.57;;;9.40;;
8574;SDS011;4325;42.520;27.448;2023-04-06T03:26:46;11.10;;;10.00;;
8574;SDS011;4325;42.520;27.448;2023-04-06T03:29:12;11.30;;;10.00;;
8574;SDS011;4325;42.520;27.448;2023-04-06T03:31:39;9.60;;;8.70;;
8574;SDS011;4325;42.520;27.448;2023-04-06T03:34:06;10.33;;;9.23;;
8574;SDS011;4325;42.520;27.448;2023-04-06T03:36:33;15.97;;;8.93;;
8574;SDS011;4325;42.520;27.448;2023-04-06T03:39:01;9.63;;;8.63;;
8574;SDS011;4325;42.520;27.448;2023-04-06T03:41:29;11.57;;;9.60;;
8574;SDS011;4325;42.520;27.448;2023-04-06T03:43:56;13.07;;;9.13;;
8574;SDS011;4325;42.520;27.448;2023-04-06T03:46:23;10.33;;;9.33;;
8574;SDS011;4325;42.520;27.448;2023-04-06T03:48:50;10.33;;;9.27;;
8574;SDS011;4325;42.520;27.448;2023-04-06T03:51:17;11.27;;;10.07;;
8574;SDS011;4325;42.520;27.448;2023-04-06T03:53:43;9.43;;;8.50;;
8574;SDS011;4325;42.520;27.448;2023-04-06T03:56:10;12.27;;;9.20;;
8574;SDS011;4325;42.520;27.448;2023-04-06T03:58:39;9.57;;;8.57;;
8574;SDS011;4325;42.520;27.448;2023-04-06T04:01:05;10.60;;;9.13;;
8574;SDS011;4325;42.520;27.448;2023-04-06T04:03:32;11.73;;;9.63;;
8574;SDS011;4325;42.520;27.448;2023-04-06T04:05:59;11.60;;;10.33;;
8574;SDS011;4325;42.520;27.448;2023-04-06T04:08:26;13.97;;;11.70;;
8574;SDS011;4325;42.520;27.448;2023-04-06T04:10:53;16.90;;;12.90;;
8574;SDS011;4325;42.520;27.448;2023-04-06T04:13:20;14.13;;;12.23;;
8574;SDS011;4325;42.520;27.448;2023-04-06T04:15:48;13.83;;;11.03;;
8574;SDS011;4325;42.520;27.448;2023-04-06T04:18:15;11.43;;;10.23;;
8574;SDS011;4325;42.520;27.448;2023-04-06T04:20:42;10.50;;;9.30;;
8574;SDS011;4325;42.520;27.448;2023-04-06T04:23:09;10.87;;;8.07;;
8574;SDS011;4325;42.520;27.448;2023-04-06T04:25:36;9.60;;;8.57;;
8574;SDS011;4325;42.520;27.448;2023-04-06T04:28:03;11.80;;;8.07;;
8574;SDS011;4325;42.520;27.448;2023-04-06T04:30:30;10.90;;;9.50;;
8574;SDS011;4325;42.520;27.448;2023-04-06T04:32:58;9.97;;;8.97;;
8574;SDS011;4325;42.520;27.448;2023-04-06T04:35:26;10.83;;;8.57;;
8574;SDS011;4325;42.520;27.448;2023-04-06T04:37:53;11.30;;;9.27;;
8574;SDS011;4325;42.520;27.448;2023-04-06T04:40:20;26.47;;;19.53;;
8574;SDS011;4325;42.520;27.448;2023-04-06T04:42:46;14.90;;;11.97;;
8574;SDS011;4325;42.520;27.448;2023-04-06T04:45:13;18.23;;;11.83;;
8574;SDS011;4325;42.520;27.448;2023-04-06T04:47:40;11.87;;;10.10;;
8574;SDS011;4325;42.520;27.448;2023-04-06T04:50:09;13.87;;;10.97;;
8574;SDS011;4325;42.520;27.448;2023-04-06T04:52:36;14.00;;;11.77;;
8574;SDS011;4325;42.520;27.448;2023-04-06T04:55:04;12.30;;;10.40;;
8574;SDS011;4325;42.520;27.448;2023-04-06T04:57:31;10.83;;;9.67;;
8574;SDS011;4325;42.520;27.448;2023-04-06T04:59:58;15.10;;;10.10;;
8574;SDS011;4325;42.520;27.448;2023-04-06T05:02:25;15.57;;;9.43;;
8574;SDS011;4325;42.520;27.448;2023-04-06T05:04:52;9.80;;;8.80;;
8574;SDS011;4325;42.520;27.448;2023-04-06T05:07:20;10.23;;;9.13;;
8574;SDS011;4325;42.520;27.448;2023-04-06T05:09:47;10.00;;;9.00;;
8574;SDS011;4325;42.520;27.448;2023-04-06T05:12:14;12.17;;;8.93;;
8574;SDS011;4325;42.520;27.448;2023-04-06T05:14:41;10.60;;;9.30;;
8574;SDS011;4325;42.520;27.448;2023-04-06T05:17:08;11.53;;;8.80;;
8574;SDS011;4325;42.520;27.448;2023-04-06T05:19:35;10.23;;;9.00;;
8574;SDS011;4325;42.520;27.448;2023-04-06T05:22:02;13.77;;;9.97;;
8574;SDS011;4325;42.520;27.448;2023-04-06T05:24:31;14.80;;;10.40;;
8574;SDS011;4325;42.520;27.448;2023-04-06T05:26:58;15.40;;;11.13;;
8574;SDS011;4325;42.520;27.448;2023-04-06T05:29:25;14.90;;;11.40;;
8574;SDS011;4325;42.520;27.448;2023-04-06T05:31:52;13.90;;;11.00;;
8574;SDS011;4325;42.520;27.448;2023-04-06T05:34:19;11.63;;;9.90;;
8574;SDS011;4325;42.520;27.448;2023-04-06T05:36:46;12.33;;;10.60;;
8574;SDS011;4325;42.520;27.448;2023-04-06T05:39:13;11.73;;;10.40;;
8574;SDS011;4325;42.520;27.448;2023-04-06T05:41:42;16.60;;;12.30;;
8574;SDS011;4325;42.520;27.448;2023-04-06T05:44:08;13.60;;;11.20;;
8574;SDS011;4325;42.520;27.448;2023-04-06T05:46:35;12.97;;;10.77;;
8574;SDS011;4325;42.520;27.448;2023-04-06T05:49:02;11.60;;;10.40;;
8574;SDS011;4325;42.520;27.448;2023-04-06T05:51:29;12.87;;;10.50;;
8574;SDS011;4325;42.520;27.448;2023-04-06T05:53:56;13.37;;;10.13;;
8574;SDS011;4325;42.520;27.448;2023-04-06T05:56:23;15.60;;;11.57;;
8574;SDS011;4325;42.520;27.448;2023-04-06T05:58:52;15.93;;;11.30;;
8574;SDS011;4325;42.520;27.448;2023-04-06T06:01:18;15.40;;;11.47;;
8574;SDS011;4325;42.520;27.448;2023-04-06T06:03:45;13.07;;;10.77;;
8574;SDS011;4325;42.520;27.448;2023-04-06T06:06:12;17.10;;;12.60;;
8574;SDS011;4325;42.520;27.448;2023-04-06T06:08:39;19.07;;;11.10;;
8574;SDS011;4325;42.520;27.448;2023-04-06T06:11:06;15.53;;;11.60;;
8574;SDS011;4325;42.520;27.448;2023-04-06T06:13:33;15.77;;;12.17;;
8574;SDS011;4325;42.520;27.448;2023-04-06T06:16:01;16.33;;;11.70;;
8574;SDS011;4325;42.520;27.448;2023-04-06T06:18:30;16.90;;;11.57;;
8574;SDS011;4325;42.520;27.448;2023-04-06T06:20:57;14.27;;;11.63;;
8574;SDS011;4325;42.520;27.448;2023-04-06T06:23:24;13.73;;;10.47;;
8574;SDS011;4325;42.520;27.448;2023-04-06T06:25:51;14.80;;;13.03;;
8574;SDS011;4325;42.520;27.448;2023-04-06T06:28:18;13.13;;;10.43;;
8574;SDS011;4325;42.520;27.448;2023-04-06T06:30:45;16.87;;;10.93;;
8574;SDS011;4325;42.520;27.448;2023-04-06T06:33:14;11.47;;;9.33;;
8574;SDS011;4325;42.520;27.448;2023-04-06T06:35:41;10.63;;;9.53;;
8574;SDS011;4325;42.520;27.448;2023-04-06T06:38:08;10.93;;;9.23;;
8574;SDS011;4325;42.520;27.448;2023-04-06T06:40:35;11.93;;;9.77;;
8574;SDS011;4325;42.520;27.448;2023-04-06T06:43:02;14.17;;;10.13;;
8574;SDS011;4325;42.520;27.448;2023-04-06T06:45:29;12.30;;;10.83;;
8574;SDS011;4325;42.520;27.448;2023-04-06T06:47:55;14.80;;;10.60;;
8574;SDS011;4325;42.520;27.448;2023-04-06T06:50:24;15.10;;;10.73;;
8574;SDS011;4325;42.520;27.448;2023-04-06T06:52:51;13.20;;;10.57;;
8574;SDS011;4325;42.520;27.448;2023-04-06T06:55:18;15.73;;;14.03;;
8574;SDS011;4325;42.520;27.448;2023-04-06T06:57:45;14.77;;;12.07;;
8574;SDS011;4325;42.520;27.448;2023-04-06T07:00:13;16.20;;;14.30;;
8574;SDS011;4325;42.520;27.448;2023-04-06T07:02:40;20.80;;;16.37;;
8574;SDS011;4325;42.520;27.448;2023-04-06T07:05:07;18.27;;;15.23;;
8574;SDS011;4325;42.520;27.448;2023-04-06T07:07:35;24.57;;;20.40;;
8574;SDS011;4325;42.520;27.448;2023-04-06T07:10:03;26.77;;;22.27;;
8574;SDS011;4325;42.520;27.448;2023-04-06T07:12:30;25.47;;;18.50;;
8574;SDS011;4325;42.520;27.448;2023-04-06T07:14:57;26.47;;;19.27;;
8574;SDS011;4325;42.520;27.448;2023-04-06T07:17:24;23.83;;;16.40;;
8574;SDS011;4325;42.520;27.448;2023-04-06T07:19:50;15.43;;;13.83;;
8574;SDS011;4325;42.520;27.448;2023-04-06T07:22:17;21.10;;;14.13;;
8574;SDS011;4325;42.520;27.448;2023-04-06T07:24:46;17.27;;;12.67;;
8574;SDS011;4325;42.520;27.448;2023-04-06T07:27:12;14.63;;;13.13;;
8574;SDS011;4325;42.520;27.448;2023-04-06T07:29:41;13.63;;;12.20;;
8574;SDS011;4325;42.520;27.448;2023-04-06T07:32:08;15.17;;;12.67;;
8574;SDS011;4325;42.520;27.448;2023-04-06T07:34:35;17.60;;;13.00;;
8574;SDS011;4325;42.520;27.448;2023-04-06T07:37:02;14.80;;;11.20;;
8574;SDS011;4325;42.520;27.448;2023-04-06T07:39:29;13.73;;;12.33;;
8574;SDS011;4325;42.520;27.448;2023-04-06T07:41:57;13.87;;;12.17;;
8574;SDS011;4325;42.520;27.448;2023-04-06T07:44:24;14.50;;;12.17;;
8574;SDS011;4325;42.520;27.448;2023-04-06T07:46:51;16.43;;;10.53;;
8574;SDS011;4325;42.520;27.448;2023-04-06T07:49:18;12.93;;;11.50;;
8574;SDS011;4325;42.520;27.448;2023-04-06T07:51:46;14.53;;;11.43;;
8574;SDS011;4325;42.520;27.448;2023-04-06T07:54:13;12.37;;;11.17;;
8574;SDS011;4325;42.520;27.448;2023-04-06T07:56:39;13.73;;;12.33;;
8574;SDS011;4325;42.520;27.448;2023-04-06T07:59:08;15.13;;;13.63;;
8574;SDS011;4325;42.520;27.448;2023-04-06T08:01:36;15.47;;;12.73;;
8574;SDS011;4325;42.520;27.448;2023-04-06T08:04:03;16.10;;;12.33;;
8574;SDS011;4325;42.520;27.448;2023-04-06T08:06:30;16.10;;;12.87;;
8574;SDS011;4325;42.520;27.448;2023-04-06T08:08:57;16.33;;;11.60;;
8574;SDS011;4325;42.520;27.448;2023-04-06T08:11:24;12.83;;;11.00;;
8574;SDS011;4325;42.520;27.448;2023-04-06T08:13:51;14.50;;;10.47;;
8574;SDS011;4325;42.520;27.448;2023-04-06T08:16:20;13.73;;;12.33;;
8574;SDS011;4325;42.520;27.448;2023-04-06T08:18:47;14.53;;;12.93;;
8574;SDS011;4325;42.520;27.448;2023-04-06T08:21:13;12.20;;;11.00;;
8574;SDS011;4325;42.520;27.448;2023-04-06T08:23:41;11.60;;;9.83;;
8574;SDS011;4325;42.520;27.448;2023-04-06T08:26:08;11.27;;;10.07;;
8574;SDS011;4325;42.520;27.448;2023-04-06T08:28:35;10.67;;;9.77;;
8574;SDS011;4325;42.520;27.448;2023-04-06T08:31:03;11.73;;;10.37;;
8574;SDS011;4325;42.520;27.448;2023-04-06T08:33:32;14.80;;;13.20;;
8574;SDS011;4325;42.520;27.448;2023-04-06T08:36:06;13.07;;;11.20;;
8574;SDS011;4325;42.520;27.448;2023-04-06T08:38:35;13.63;;;12.23;;
8574;SDS011;4325;42.520;27.448;2023-04-06T08:41:06;11.57;;;10.47;;
8574;SDS011;4325;42.520;27.448;2023-04-06T08:43:34;9.83;;;8.93;;
8574;SDS011;4325;42.520;27.448;2023-04-06T08:46:07;8.97;;;8.13;;
8574;SDS011;4325;42.520;27.448;2023-04-06T08:48:36;8.27;;;7.57;;
8574;SDS011;4325;42.520;27.448;2023-04-06T08:51:05;8.83;;;7.63;;
8574;SDS011;4325;42.520;27.448;2023-04-06T08:53:32;10.60;;;9.63;;
8574;SDS011;4325;42.520;27.448;2023-04-06T08:55:59;9.57;;;8.67;;
8574;SDS011;4325;42.520;27.448;2023-04-06T08:58:28;12.13;;;8.90;;
8574;SDS011;4325;42.520;27.448;2023-04-06T09:01:00;9.67;;;8.80;;
8574;SDS011;4325;42.520;27.448;2023-04-06T09:03:28;8.50;;;7.80;;
8574;SDS011;4325;42.520;27.448;2023-04-06T09:05:58;8.07;;;7.37;;
8574;SDS011;4325;42.520;27.448;2023-04-06T09:08:25;7.87;;;7.17;;
8574;SDS011;4325;42.520;27.448;2023-04-06T09:10:52;7.27;;;6.63;;
8574;SDS011;4325;42.520;27.448;2023-04-06T09:13:19;7.57;;;6.90;;
8574;SDS011;4325;42.520;27.448;2023-04-06T09:15:46;6.60;;;6.10;;
8574;SDS011;4325;42.520;27.448;2023-04-06T09:18:13;6.40;;;5.87;;
8574;SDS011;4325;42.520;27.448;2023-04-06T09:20:58;6.93;;;6.33;;
8574;SDS011;4325;42.520;27.448;2023-04-06T09:23:26;7.57;;;6.83;;
8574;SDS011;4325;42.520;27.448;2023-04-06T09:26:03;7.57;;;6.70;;
8574;SDS011;4325;42.520;27.448;2023-04-06T09:28:41;8.43;;;7.53;;
8574;SDS011;4325;42.520;27.448;2023-04-06T09:31:10;7.33;;;6.73;;
8574;SDS011;4325;42.520;27.448;2023-04-06T09:33:37;7.53;;;6.73;;
8574;SDS011;4325;42.520;27.448;2023-04-06T09:36:07;6.70;;;5.87;;
8574;SDS011;4325;42.520;27.448;2023-04-06T09:38:36;7.87;;;7.07;;
8574;SDS011;4325;42.520;27.448;2023-04-06T09:41:04;8.40;;;7.70;;
8574;SDS011;4325;42.520;27.448;2023-04-06T09:43:31;7.30;;;6.70;;
8574;SDS011;4325;42.520;27.448;2023-04-06T09:45:58;7.23;;;6.63;;
8574;SDS011;4325;42.520;27.448;2023-04-06T09:48:28;8.33;;;7.23;;
8574;SDS011;4325;42.520;27.448;2023-04-06T09:51:03;8.67;;;7.27;;
8574;SDS011;4325;42.520;27.448;2023-04-06T09:53:32;8.03;;;7.43;;
8574;SDS011;4325;42.520;27.448;2023-04-06T09:56:05;7.53;;;6.87;;
8574;SDS011;4325;42.520;27.448;2023-04-06T09:58:38;7.23;;;6.63;;
8574;SDS011;4325;42.520;27.448;2023-04-06T10:01:10;7.93;;;7.13;;
8574;SDS011;4325;42.520;27.448;2023-04-06T10:03:44;7.80;;;7.20;;
8574;SDS011;4325;42.520;27.448;2023-04-06T10:06:13;7.27;;;6.57;;
8574;SDS011;4325;42.520;27.448;2023-04-06T10:08:45;8.97;;;6.70;;
8574;SDS011;4325;42.520;27.448;2023-04-06T10:11:14;7.87;;;7.07;;
8574;SDS011;4325;42.520;27.448;2023-04-06T10:13:41;7.80;;;7.20;;
8574;SDS011;4325;42.520;27.448;2023-04-06T10:16:09;6.90;;;6.30;;
8574;SDS011;4325;42.520;27.448;2023-04-06T10:18:36;7.53;;;6.87;;
8574;SDS011;4325;42.520;27.448;2023-04-06T10:21:08;6.50;;;6.07;;
8574;SDS011;4325;42.520;27.448;2023-04-06T10:23:40;7.40;;;6.63;;
8574;SDS011;4325;42.520;27.448;2023-04-06T10:26:13;7.30;;;6.57;;
8574;SDS011;4325;42.520;27.448;2023-04-06T10:28:42;7.33;;;6.67;;
8574;SDS011;4325;42.520;27.448;2023-04-06T10:31:09;7.20;;;6.10;;
8574;SDS011;4325;42.520;27.448;2023-04-06T10:33:37;8.18;;;7.47;;
8574;SDS011;4325;42.520;27.448;2023-04-06T10:36:09;7.07;;;6.57;;
8574;SDS011;4325;42.520;27.448;2023-04-06T10:38:38;6.90;;;6.33;;
8574;SDS011;4325;42.520;27.448;2023-04-06T10:41:05;7.83;;;7.10;;
8574;SDS011;4325;42.520;27.448;2023-04-06T10:43:35;6.87;;;6.37;;
8574;SDS011;4325;42.520;27.448;2023-04-06T10:46:04;7.37;;;6.87;;
8574;SDS011;4325;42.520;27.448;2023-04-06T10:48:38;7.07;;;6.40;;
8574;SDS011;4325;42.520;27.448;2023-04-06T10:51:10;7.20;;;6.47;;
8574;SDS011;4325;42.520;27.448;2023-04-06T10:53:37;6.57;;;5.97;;
8574;SDS011;4325;42.520;27.448;2023-04-06T10:56:09;5.43;;;5.03;;
8574;SDS011;4325;42.520;27.448;2023-04-06T10:58:38;6.50;;;5.50;;
8574;SDS011;4325;42.520;27.448;2023-04-06T11:01:11;4.90;;;4.60;;
8574;SDS011;4325;42.520;27.448;2023-04-06T11:03:44;5.80;;;5.40;;
8574;SDS011;4325;42.520;27.448;2023-04-06T11:06:17;6.70;;;6.00;;
8574;SDS011;4325;42.520;27.448;2023-04-06T11:08:44;7.40;;;6.80;;
8574;SDS011;4325;42.520;27.448;2023-04-06T11:11:12;10.73;;;6.93;;
8574;SDS011;4325;42.520;27.448;2023-04-06T11:13:42;6.87;;;6.13;;
8574;SDS011;4325;42.520;27.448;2023-04-06T11:16:13;6.00;;;5.40;;
8574;SDS011;4325;42.520;27.448;2023-04-06T11:18:51;5.67;;;5.17;;
8574;SDS011;4325;42.520;27.448;2023-04-06T11:21:20;6.80;;;5.43;;
8574;SDS011;4325;42.520;27.448;2023-04-06T11:24:05;5.23;;;4.83;;
8574;SDS011;4325;42.520;27.448;2023-04-06T11:26:36;7.97;;;4.93;;
8574;SDS011;4325;42.520;27.448;2023-04-06T11:29:05;6.50;;;5.90;;
8574;SDS011;4325;42.520;27.448;2023-04-06T11:31:37;5.40;;;4.90;;
8574;SDS011;4325;42.520;27.448;2023-04-06T11:34:08;4.40;;;4.10;;
8574;SDS011;4325;42.520;27.448;2023-04-06T11:36:39;4.20;;;3.90;;
8574;SDS011;4325;42.520;27.448;2023-04-06T11:39:07;5.03;;;4.53;;
8574;SDS011;4325;42.520;27.448;2023-04-06T11:41:34;5.60;;;5.20;;
8574;SDS011;4325;42.520;27.448;2023-04-06T11:44:01;5.70;;;5.30;;
8574;SDS011;4325;42.520;27.448;2023-04-06T11:46:30;4.80;;;4.50;;
8574;SDS011;4325;42.520;27.448;2023-04-06T11:49:00;5.03;;;4.57;;
8574;SDS011;4325;42.520;27.448;2023-04-06T11:51:27;4.63;;;4.30;;
8574;SDS011;4325;42.520;27.448;2023-04-06T11:53:54;4.70;;;4.30;;
8574;SDS011;4325;42.520;27.448;2023-04-06T11:56:22;5.50;;;5.10;;
8574;SDS011;4325;42.520;27.448;2023-04-06T11:58:50;3.80;;;3.50;;
8574;SDS011;4325;42.520;27.448;2023-04-06T12:01:17;4.63;;;4.20;;
8574;SDS011;4325;42.520;27.448;2023-04-06T12:03:45;3.80;;;3.50;;
8574;SDS011;4325;42.520;27.448;2023-04-06T12:06:13;4.03;;;3.73;;
8574;SDS011;4325;42.520;27.448;2023-04-06T12:08:40;4.90;;;4.50;;
8574;SDS011;4325;42.520;27.448;2023-04-06T12:11:11;3.97;;;3.57;;
8574;SDS011;4325;42.520;27.448;2023-04-06T12:13:38;4.63;;;3.83;;
8574;SDS011;4325;42.520;27.448;2023-04-06T12:16:05;4.20;;;3.70;;
8574;SDS011;4325;42.520;27.448;2023-04-06T12:18:33;3.67;;;3.37;;
8574;SDS011;4325;42.520;27.448;2023-04-06T12:21:03;5.10;;;4.67;;
8574;SDS011;4325;42.520;27.448;2023-04-06T12:23:31;4.83;;;4.17;;
8574;SDS011;4325;42.520;27.448;2023-04-06T12:25:58;3.90;;;3.60;;
8574;SDS011;4325;42.520;27.448;2023-04-06T12:28:26;5.67;;;3.90;;
8574;SDS011;4325;42.520;27.448;2023-04-06T12:30:53;8.57;;;4.07;;
8574;SDS011;4325;42.520;27.448;2023-04-06T12:33:20;5.80;;;4.38;;
8574;SDS011;4325;42.520;27.448;2023-04-06T12:35:47;6.57;;;3.85;;
8574;SDS011;4325;42.520;27.448;2023-04-06T12:38:16;4.07;;;3.70;;
8574;SDS011;4325;42.520;27.448;2023-04-06T12:40:43;3.80;;;3.42;;
8574;SDS011;4325;42.520;27.448;2023-04-06T12:43:10;4.72;;;3.40;;
8574;SDS011;4325;42.520;27.448;2023-04-06T12:45:38;3.42;;;3.13;;
8574;SDS011;4325;42.520;27.448;2023-04-06T12:48:05;4.32;;;4.03;;
8574;SDS011;4325;42.520;27.448;2023-04-06T12:50:32;4.38;;;3.97;;
8574;SDS011;4325;42.520;27.448;2023-04-06T12:52:59;3.97;;;3.67;;
8574;SDS011;4325;42.520;27.448;2023-04-06T12:55:29;4.05;;;3.70;;
8574;SDS011;4325;42.520;27.448;2023-04-06T12:57:59;4.20;;;3.80;;
8574;SDS011;4325;42.520;27.448;2023-04-06T13:00:26;5.55;;;5.15;;
8574;SDS011;4325;42.520;27.448;2023-04-06T13:02:53;5.88;;;5.22;;
8574;SDS011;4325;42.520;27.448;2023-04-06T13:05:20;5.60;;;5.18;;
8574;SDS011;4325;42.520;27.448;2023-04-06T13:07:47;6.53;;;5.93;;
8574;SDS011;4325;42.520;27.448;2023-04-06T13:10:14;8.05;;;5.63;;
8574;SDS011;4325;42.520;27.448;2023-04-06T13:12:42;6.53;;;5.90;;
8574;SDS011;4325;42.520;27.448;2023-04-06T13:15:10;9.35;;;6.10;;
8574;SDS011;4325;42.520;27.448;2023-04-06T13:17:37;6.32;;;5.82;;
8574;SDS011;4325;42.520;27.448;2023-04-06T13:20:04;7.47;;;5.90;;
8574;SDS011;4325;42.520;27.448;2023-04-06T13:22:32;5.93;;;5.43;;
8574;SDS011;4325;42.520;27.448;2023-04-06T13:24:59;7.28;;;6.20;;
8574;SDS011;4325;42.520;27.448;2023-04-06T13:27:26;8.13;;;6.60;;
8574;SDS011;4325;42.520;27.448;2023-04-06T13:29:55;7.93;;;6.30;;
8574;SDS011;4325;42.520;27.448;2023-04-06T13:32:22;8.10;;;7.23;;
8574;SDS011;4325;42.520;27.448;2023-04-06T13:34:49;7.53;;;6.77;;
8574;SDS011;4325;42.520;27.448;2023-04-06T13:37:18;7.70;;;6.90;;
8574;SDS011;4325;42.520;27.448;2023-04-06T13:39:45;8.20;;;7.40;;
8574;SDS011;4325;42.520;27.448;2023-04-06T13:42:12;8.00;;;7.30;;
8574;SDS011;4325;42.520;27.448;2023-04-06T13:44:39;9.07;;;7.70;;
8574;SDS011;4325;42.520;27.448;2023-04-06T13:47:07;7.27;;;6.43;;
8574;SDS011;4325;42.520;27.448;2023-04-06T13:49:34;7.30;;;6.60;;
8574;SDS011;4325;42.520;27.448;2023-04-06T13:52:01;10.03;;;7.17;;
8574;SDS011;4325;42.520;27.448;2023-04-06T13:54:28;8.20;;;7.50;;
8574;SDS011;4325;42.520;27.448;2023-04-06T13:56:55;7.40;;;6.70;;
8574;SDS011;4325;42.520;27.448;2023-04-06T13:59:22;8.17;;;6.37;;
8574;SDS011;4325;42.520;27.448;2023-04-06T14:01:49;8.33;;;7.53;;
8574;SDS011;4325;42.520;27.448;2023-04-06T14:04:18;8.43;;;7.63;;
8574;SDS011;4325;42.520;27.448;2023-04-06T14:06:44;8.80;;;7.20;;
8574;SDS011;4325;42.520;27.448;2023-04-06T14:09:12;8.47;;;7.10;;
8574;SDS011;4325;42.520;27.448;2023-04-06T14:11:39;10.37;;;7.73;;
8574;SDS011;4325;42.520;27.448;2023-04-06T14:14:06;8.93;;;6.80;;
8574;SDS011;4325;42.520;27.448;2023-04-06T14:16:32;8.67;;;7.97;;
8574;SDS011;4325;42.520;27.448;2023-04-06T14:18:59;8.93;;;7.67;;
8574;SDS011;4325;42.520;27.448;2023-04-06T14:21:28;9.50;;;8.57;;
8574;SDS011;4325;42.520;27.448;2023-04-06T14:23:55;9.17;;;8.33;;
8574;SDS011;4325;42.520;27.448;2023-04-06T14:26:22;14.70;;;8.80;;
8574;SDS011;4325;42.520;27.448;2023-04-06T14:28:49;9.73;;;8.07;;
8574;SDS011;4325;42.520;27.448;2023-04-06T14:31:16;9.73;;;8.33;;
8574;SDS011;4325;42.520;27.448;2023-04-06T14:33:43;10.20;;;9.13;;
8574;SDS011;4325;42.520;27.448;2023-04-06T14:36:11;10.10;;;8.60;;
8574;SDS011;4325;42.520;27.448;2023-04-06T14:38:39;9.67;;;8.80;;
8574;SDS011;4325;42.520;27.448;2023-04-06T14:41:06;11.77;;;9.30;;
8574;SDS011;4325;42.520;27.448;2023-04-06T14:43:34;12.90;;;9.50;;
8574;SDS011;4325;42.520;27.448;2023-04-06T14:46:01;9.80;;;8.87;;
8574;SDS011;4325;42.520;27.448;2023-04-06T14:48:28;10.53;;;9.53;;
8574;SDS011;4325;42.520;27.448;2023-04-06T14:50:55;11.27;;;9.90;;
8574;SDS011;4325;42.520;27.448;2023-04-06T14:53:23;13.40;;;11.17;;